createdAt,value
2019-05-16T00:02:25.718Z,3.37
2019-05-16T00:04:59.143Z,2.87
2019-05-16T00:07:31.664Z,2.75
2019-05-16T00:10:03.836Z,2.95
2019-05-16T00:12:36.086Z,2.72
2019-05-16T00:15:09.259Z,3.27
2019-05-16T00:17:41.475Z,3.25
2019-05-16T00:20:13.641Z,3.37
2019-05-16T00:22:48.197Z,3.35
2019-05-16T00:25:19.353Z,3.00
2019-05-16T00:27:51.776Z,3.58
2019-05-16T00:30:23.847Z,3.05
2019-05-16T00:32:55.846Z,3.50
2019-05-16T00:35:28.506Z,2.75
2019-05-16T00:38:00.729Z,3.05
2019-05-16T00:40:33.623Z,3.50
2019-05-16T00:43:07.876Z,3.90
2019-05-16T00:45:39.349Z,3.47
2019-05-16T00:48:10.289Z,3.30
2019-05-16T00:50:41.935Z,3.40
2019-05-16T00:53:14.084Z,3.00
2019-05-16T00:55:47.958Z,3.62
2019-05-16T00:58:21.200Z,3.92
2019-05-16T01:00:53.040Z,3.95
2019-05-16T01:03:25.063Z,3.17
2019-05-16T01:05:58.240Z,3.20
2019-05-16T01:08:30.420Z,4.00
2019-05-16T01:11:02.414Z,3.45
2019-05-16T01:13:34.486Z,3.87
2019-05-16T01:16:08.537Z,3.92
2019-05-16T01:18:39.954Z,3.70
2019-05-16T01:21:11.931Z,4.10
2019-05-16T01:23:43.849Z,3.77
2019-05-16T01:26:18.369Z,4.30
2019-05-16T01:28:49.705Z,3.50
2019-05-16T01:31:21.827Z,4.30
2019-05-16T01:33:53.811Z,4.53
2019-05-16T01:36:35.990Z,4.30
2019-05-16T01:38:59.499Z,3.80
2019-05-16T01:41:31.627Z,4.40
2019-05-16T01:44:03.718Z,3.98
2019-05-16T01:46:38.872Z,4.12
2019-05-16T01:49:10.470Z,3.80
2019-05-16T01:51:42.510Z,4.33
2019-05-16T01:54:14.616Z,3.70
2019-05-16T01:56:48.065Z,4.10
2019-05-16T01:59:20.112Z,3.72
2019-05-16T02:01:52.146Z,4.30
2019-05-16T02:04:24.194Z,4.75
2019-05-16T02:06:58.303Z,4.37
2019-05-16T02:09:30.054Z,4.62
2019-05-16T02:12:03.014Z,4.20
2019-05-16T02:14:35.073Z,4.00
2019-05-16T02:17:10.942Z,4.33
2019-05-16T02:19:40.947Z,3.70
2019-05-16T02:22:12.934Z,4.30
2019-05-16T02:24:47.974Z,4.28
2019-05-16T02:27:21.785Z,4.17
2019-05-16T02:29:53.855Z,3.72
2019-05-16T02:32:25.860Z,4.00
2019-05-16T02:35:00.903Z,4.97
2019-05-16T02:37:34.838Z,3.90
2019-05-16T02:40:06.867Z,4.53
2019-05-16T02:42:42.005Z,4.87
2019-05-16T02:45:13.035Z,4.95
2019-05-16T02:47:46.060Z,4.55
2019-05-16T02:50:21.866Z,5.00
2019-05-16T02:52:52.213Z,4.40
2019-05-16T02:55:24.311Z,4.75
2019-05-16T02:58:00.847Z,5.28
2019-05-16T03:00:36.895Z,5.50
2019-05-16T03:03:12.006Z,4.97
2019-05-16T03:05:44.050Z,5.12
2019-05-16T03:08:16.418Z,5.58
2019-05-16T03:10:52.006Z,5.40
2019-05-16T03:13:24.822Z,5.22
2019-05-16T03:16:00.705Z,4.35
2019-05-16T03:18:34.176Z,4.85
2019-05-16T03:21:11.028Z,4.75
2019-05-16T03:23:42.387Z,5.05
2019-05-16T03:26:14.785Z,4.80
2019-05-16T03:28:46.829Z,4.22
2019-05-16T03:31:23.833Z,4.80
2019-05-16T03:33:59.134Z,4.40
2019-05-16T03:36:26.360Z,4.70
2019-05-16T03:39:01.114Z,5.30
2019-05-16T03:41:32.449Z,4.53
2019-05-16T03:44:04.511Z,4.65
2019-05-16T03:46:36.559Z,5.12
2019-05-16T03:49:11.312Z,5.40
2019-05-16T03:51:42.187Z,5.28
2019-05-16T03:54:14.175Z,6.00
2019-05-16T03:56:46.087Z,5.20
2019-05-16T03:59:21.356Z,6.10
2019-05-16T04:01:51.821Z,6.20
2019-05-16T04:04:23.796Z,6.45
2019-05-16T04:06:55.819Z,5.78
2019-05-16T04:09:27.939Z,5.75
2019-05-16T04:12:01.798Z,6.37
2019-05-16T04:14:33.354Z,4.75
2019-05-16T04:17:05.824Z,4.35
2019-05-16T04:19:37.819Z,4.60
2019-05-16T04:22:15.567Z,4.95
2019-05-16T04:24:47.572Z,5.35
2019-05-16T04:27:21.547Z,4.90
2019-05-16T04:29:53.413Z,6.00
2019-05-16T04:32:25.387Z,5.30
2019-05-16T04:34:57.556Z,5.37
2019-05-16T04:37:31.377Z,5.37
2019-05-16T04:40:03.479Z,5.10
2019-05-16T04:42:35.543Z,4.97
2019-05-16T04:45:07.866Z,5.42
2019-05-16T04:47:41.405Z,5.65
2019-05-16T04:50:15.737Z,5.22
2019-05-16T04:52:51.473Z,5.08
2019-05-16T04:55:22.518Z,4.92
2019-05-16T04:57:54.578Z,4.92
2019-05-16T05:00:26.531Z,5.30
2019-05-16T05:03:01.330Z,4.72
2019-05-16T05:05:33.502Z,5.37
2019-05-16T05:08:05.554Z,4.30
2019-05-16T05:10:40.453Z,5.65
2019-05-16T05:13:11.263Z,4.90
2019-05-16T05:15:43.278Z,5.47
2019-05-16T05:18:15.337Z,5.20
2019-05-16T05:20:47.349Z,5.30
2019-05-16T05:23:21.022Z,4.87
2019-05-16T05:25:53.396Z,5.60
2019-05-16T05:28:25.519Z,4.67
2019-05-16T05:30:59.759Z,5.08
2019-05-16T05:33:31.320Z,5.15
2019-05-16T05:36:03.390Z,4.58
2019-05-16T05:38:35.169Z,5.58
2019-05-16T05:41:12.835Z,5.45
2019-05-16T05:43:45.245Z,5.95
2019-05-16T05:46:20.567Z,6.50
2019-05-16T05:49:03.316Z,6.35
2019-05-16T05:51:41.043Z,5.75
2019-05-16T05:54:20.438Z,6.15
2019-05-16T05:56:52.682Z,4.97
2019-05-16T05:59:24.750Z,5.50
2019-05-16T06:01:56.821Z,5.40
2019-05-16T06:04:39.566Z,5.40
2019-05-16T06:07:12.316Z,5.85
2019-05-16T06:09:53.559Z,5.78
2019-05-16T06:12:18.021Z,6.05
2019-05-16T06:14:51.835Z,5.75
2019-05-16T06:17:23.718Z,6.47
2019-05-16T06:19:55.796Z,6.90
2019-05-16T06:22:29.857Z,7.03
2019-05-16T06:25:02.179Z,5.35
2019-05-16T06:27:34.053Z,6.08
2019-05-16T06:30:06.450Z,6.67
2019-05-16T06:32:39.538Z,6.67
2019-05-16T06:35:11.861Z,6.00
2019-05-16T06:37:43.853Z,6.40
2019-05-16T06:40:16.231Z,7.28
2019-05-16T06:42:50.782Z,6.75
2019-05-16T06:45:21.871Z,5.90
2019-05-16T06:47:53.975Z,6.50
2019-05-16T06:50:25.974Z,6.47
2019-05-16T06:52:57.897Z,6.75
2019-05-16T06:55:29.844Z,7.67
2019-05-16T06:58:01.882Z,7.80
2019-05-16T07:00:34.091Z,7.72
2019-05-16T07:03:20.442Z,6.92
2019-05-16T07:06:00.713Z,8.15
2019-05-16T07:08:31.522Z,7.20
2019-05-16T07:11:03.639Z,7.12
2019-05-16T07:13:35.709Z,8.15
2019-05-16T07:16:09.716Z,9.08
2019-05-16T07:18:42.979Z,8.55
2019-05-16T07:21:15.244Z,7.67
2019-05-16T07:23:47.906Z,7.80
2019-05-16T07:26:20.662Z,7.78
2019-05-16T07:28:52.872Z,7.80
2019-05-16T07:31:25.042Z,8.08
2019-05-16T07:33:57.132Z,7.90
2019-05-16T07:36:31.473Z,8.83
2019-05-16T07:39:04.758Z,7.50
2019-05-16T07:41:40.178Z,8.55
2019-05-16T07:44:11.356Z,8.20
2019-05-16T07:46:44.565Z,7.78
2019-05-16T07:49:17.286Z,8.20
2019-05-16T07:51:51.089Z,7.62
2019-05-16T07:54:23.277Z,7.65
2019-05-16T07:56:59.245Z,7.50
2019-05-16T07:59:29.947Z,7.08
2019-05-16T08:02:02.633Z,7.33
2019-05-16T08:04:34.799Z,8.18
2019-05-16T08:07:06.969Z,7.42
2019-05-16T08:09:39.733Z,7.50
2019-05-16T08:12:12.063Z,7.75
2019-05-16T08:14:44.115Z,7.15
2019-05-16T08:17:16.232Z,7.62
2019-05-16T08:19:50.618Z,7.75
2019-05-16T08:22:23.251Z,8.18
2019-05-16T08:24:55.320Z,8.20
2019-05-16T08:27:30.489Z,7.90
2019-05-16T08:30:02.617Z,9.53
2019-05-16T08:32:35.197Z,8.90
2019-05-16T08:35:07.829Z,8.20
2019-05-16T08:37:46.646Z,9.38
2019-05-16T08:40:14.508Z,9.15
2019-05-16T08:42:46.635Z,8.20
2019-05-16T08:45:21.215Z,8.18
2019-05-16T08:47:52.951Z,8.63
2019-05-16T08:50:25.185Z,7.25
2019-05-16T08:52:57.352Z,7.60
2019-05-16T08:55:31.322Z,7.42
2019-05-16T08:58:13.209Z,7.42
2019-05-16T09:00:42.360Z,7.45
2019-05-16T09:03:14.545Z,6.85
2019-05-16T09:05:46.591Z,7.85
2019-05-16T09:08:18.677Z,7.33
2019-05-16T09:11:00.641Z,7.37
2019-05-16T09:13:27.738Z,7.25
2019-05-16T09:15:58.849Z,7.15
2019-05-16T09:18:40.657Z,6.75
2019-05-16T09:21:07.189Z,6.80
2019-05-16T09:23:39.550Z,7.50
2019-05-16T09:26:19.343Z,6.80
2019-05-16T09:28:48.159Z,6.20
2019-05-16T09:31:19.742Z,7.75
2019-05-16T09:33:51.857Z,6.83
2019-05-16T09:36:23.973Z,7.20
2019-05-16T09:38:57.763Z,6.90
2019-05-16T09:41:46.309Z,6.37
2019-05-16T09:44:05.069Z,7.80
2019-05-16T09:46:37.726Z,7.62
2019-05-16T09:49:19.476Z,7.40
2019-05-16T09:51:46.490Z,7.70
2019-05-16T09:54:17.888Z,7.80
2019-05-16T09:56:50.439Z,7.05
2019-05-16T09:59:22.913Z,6.70
2019-05-16T10:01:57.140Z,7.45
2019-05-16T10:04:29.192Z,7.15
2019-05-16T10:07:01.507Z,7.62
2019-05-16T10:09:42.080Z,6.87
2019-05-16T10:12:15.043Z,6.22
2019-05-16T10:14:41.583Z,6.60
2019-05-16T10:17:13.927Z,7.08
2019-05-16T10:19:47.553Z,6.35
2019-05-16T10:22:19.943Z,6.90
2019-05-16T10:24:52.103Z,7.12
2019-05-16T10:27:26.398Z,7.20
2019-05-16T10:30:01.047Z,7.53
2019-05-16T10:32:33.096Z,7.30
2019-05-16T10:35:05.858Z,6.72
2019-05-16T10:37:38.127Z,7.40
2019-05-16T10:40:11.690Z,5.92
2019-05-16T10:42:43.813Z,6.60
2019-05-16T10:45:17.333Z,7.17
2019-05-16T10:47:49.653Z,6.17
2019-05-16T10:50:21.732Z,6.05
2019-05-16T10:53:20.698Z,6.58
2019-05-16T10:55:27.966Z,7.97
2019-05-16T10:58:00.229Z,7.15
2019-05-16T11:00:58.043Z,6.50
2019-05-16T11:03:06.733Z,6.65
2019-05-16T11:05:39.622Z,6.42
2019-05-16T11:08:12.022Z,6.95
2019-05-16T11:10:44.362Z,7.10
2019-05-16T11:13:20.004Z,7.50
2019-05-16T11:15:50.797Z,5.83
2019-05-16T11:18:22.997Z,5.97
2019-05-16T11:20:58.152Z,5.53
2019-05-16T11:23:31.362Z,6.10
2019-05-16T11:26:03.177Z,6.22
2019-05-16T11:28:36.792Z,5.90
2019-05-16T11:31:09.157Z,6.53
2019-05-16T11:33:41.273Z,5.70
2019-05-16T11:36:13.476Z,5.95
2019-05-16T11:38:47.466Z,5.58
2019-05-16T11:41:20.095Z,5.75
2019-05-16T11:43:52.421Z,5.83
2019-05-16T11:46:27.353Z,6.28
2019-05-16T11:48:58.518Z,5.40
2019-05-16T11:51:30.578Z,6.17
2019-05-16T11:54:02.750Z,5.53
2019-05-16T11:56:36.886Z,6.42
2019-05-16T11:59:08.789Z,5.05
2019-05-16T12:01:40.952Z,5.90
2019-05-16T12:04:13.235Z,6.00
2019-05-16T12:06:46.789Z,7.22
2019-05-16T12:09:19.059Z,5.40
2019-05-16T12:12:02.618Z,5.15
2019-05-16T12:14:27.225Z,6.70
2019-05-16T12:16:59.224Z,5.10
2019-05-16T12:19:35.627Z,5.50
2019-05-16T12:22:07.034Z,5.75
2019-05-16T12:24:41.576Z,5.37
2019-05-16T12:27:12.763Z,5.00
2019-05-16T12:29:50.166Z,5.50
2019-05-16T12:32:18.790Z,6.20
2019-05-16T12:34:50.892Z,5.85
2019-05-16T12:37:22.841Z,4.80
2019-05-16T12:39:57.261Z,5.58
2019-05-16T12:42:29.089Z,4.60
2019-05-16T12:45:01.219Z,4.87
2019-05-16T12:47:33.659Z,5.78
2019-05-16T12:50:07.244Z,5.42
2019-05-16T12:52:39.618Z,5.50
2019-05-16T12:55:12.290Z,5.50
2019-05-16T12:57:44.496Z,6.00
2019-05-16T13:00:18.964Z,4.60
2019-05-16T13:02:51.055Z,5.55
2019-05-16T13:05:26.967Z,5.15
2019-05-16T13:07:58.602Z,4.92
2019-05-16T13:10:30.708Z,4.85
2019-05-16T13:13:02.729Z,5.28
2019-05-16T13:15:34.668Z,4.85
2019-05-16T13:18:07.890Z,4.65
2019-05-16T13:20:41.337Z,4.70
2019-05-16T13:23:14.777Z,5.60
2019-05-16T13:25:48.141Z,4.67
2019-05-16T13:28:20.572Z,4.80
2019-05-16T13:30:52.585Z,4.42
2019-05-16T13:33:26.979Z,5.35
2019-05-16T13:35:58.935Z,5.60
2019-05-16T13:38:31.086Z,4.62
2019-05-16T13:41:03.127Z,4.75
2019-05-16T13:43:37.466Z,4.60
2019-05-16T13:46:09.125Z,4.80
2019-05-16T13:48:41.280Z,4.37
2019-05-16T13:51:15.889Z,4.60
2019-05-16T13:53:47.407Z,4.65
2019-05-16T13:56:19.432Z,4.10
2019-05-16T13:58:51.530Z,3.95
2019-05-16T14:01:23.575Z,4.42
2019-05-16T14:03:57.304Z,5.28
2019-05-16T14:06:29.452Z,4.28
2019-05-16T14:09:01.581Z,4.55
2019-05-16T14:11:36.482Z,4.90
2019-05-16T14:14:08.697Z,4.08
2019-05-16T14:16:40.859Z,4.40
2019-05-16T14:19:13.008Z,4.70
2019-05-16T14:21:47.842Z,4.17
2019-05-16T14:24:19.475Z,5.03
2019-05-16T14:26:52.158Z,3.58
2019-05-16T14:29:24.343Z,4.62
2019-05-16T14:31:56.800Z,4.70
2019-05-16T14:34:29.165Z,5.12
2019-05-16T14:37:01.593Z,4.90
2019-05-16T14:39:38.454Z,4.90
2019-05-16T14:42:09.543Z,4.40
2019-05-16T14:44:59.543Z,4.85
2019-05-16T14:47:17.732Z,4.47
2019-05-16T14:49:50.476Z,4.42
2019-05-16T14:52:22.920Z,4.62
2019-05-16T14:54:57.389Z,5.08
2019-05-16T14:57:29.317Z,4.75
2019-05-16T15:00:01.871Z,4.50
2019-05-16T15:02:34.657Z,4.90
2019-05-16T15:05:07.937Z,3.58
2019-05-16T15:07:40.925Z,4.12
2019-05-16T15:10:19.726Z,4.87
2019-05-16T15:13:02.141Z,4.60
2019-05-16T15:15:47.692Z,4.62
2019-05-16T15:18:32.846Z,4.12
2019-05-16T15:21:17.404Z,4.72
2019-05-16T15:23:59.709Z,4.30
2019-05-16T15:26:32.404Z,4.70
2019-05-16T15:29:07.906Z,4.33
2019-05-16T15:31:39.628Z,4.40
2019-05-16T15:34:12.573Z,3.80
2019-05-16T15:36:46.745Z,3.50
2019-05-16T15:39:19.336Z,4.30
2019-05-16T16:13:38.319Z,3.40
2019-05-16T16:16:11.050Z,6.90
2019-05-16T16:18:43.169Z,3.92
2019-05-16T16:21:16.648Z,3.30
2019-05-16T16:23:51.107Z,3.98
2019-05-16T16:26:23.215Z,3.77
2019-05-16T16:28:55.431Z,3.77
2019-05-16T16:31:27.635Z,3.15
2019-05-16T16:33:59.766Z,3.00
2019-05-16T16:36:31.934Z,3.20
2019-05-16T16:39:07.494Z,3.85
2019-05-16T16:41:39.833Z,3.22
2019-05-16T16:44:11.946Z,3.20
2019-05-16T16:46:43.954Z,2.95
2019-05-16T16:49:17.277Z,3.50
2019-05-16T16:51:49.643Z,3.47
2019-05-16T16:54:22.347Z,2.90
2019-05-16T16:56:54.413Z,3.52
2019-05-16T16:59:28.082Z,3.35
2019-05-16T17:02:00.362Z,3.20
2019-05-16T17:04:32.465Z,2.95
2019-05-16T17:07:04.757Z,3.15
2019-05-16T17:09:37.205Z,2.83
2019-05-16T17:12:09.697Z,3.33
2019-05-16T17:14:41.876Z,4.37
2019-05-16T17:17:13.836Z,3.80
2019-05-16T17:19:47.349Z,2.80
2019-05-16T17:22:21.043Z,3.05
2019-05-16T17:24:53.352Z,3.10
2019-05-16T17:27:27.593Z,4.53
2019-05-16T17:30:00.877Z,3.92
2019-05-16T17:32:34.130Z,3.45
2019-05-16T17:35:06.844Z,4.58
2019-05-16T17:37:38.945Z,6.28
2019-05-16T17:40:12.213Z,6.90
2019-05-16T17:42:47.341Z,5.78
2019-05-16T17:45:18.966Z,3.95
2019-05-16T17:47:51.198Z,3.72
2019-05-16T17:50:26.199Z,4.53
2019-05-16T17:52:57.909Z,3.83
2019-05-16T17:55:30.110Z,4.05
2019-05-16T17:58:05.413Z,4.00
2019-05-16T18:00:36.535Z,4.78
2019-05-16T18:03:08.715Z,4.22
2019-05-16T18:05:40.799Z,3.52
2019-05-16T18:08:12.851Z,3.30
2019-05-16T18:10:47.215Z,3.67
2019-05-16T18:13:18.847Z,4.30
2019-05-16T18:15:50.780Z,3.50
2019-05-16T18:18:22.927Z,3.50
2019-05-16T18:21:01.641Z,6.83
2019-05-16T18:23:29.835Z,4.53
2019-05-16T18:26:02.236Z,5.03
2019-05-16T18:28:36.302Z,7.35
2019-05-16T18:31:08.388Z,5.37
2019-05-16T18:33:41.868Z,5.05
2019-05-16T18:36:13.914Z,3.35
2019-05-16T18:38:46.609Z,6.67
2019-05-16T18:41:18.892Z,5.17
2019-05-16T18:43:51.037Z,3.58
2019-05-16T18:46:23.142Z,4.03
2019-05-16T18:48:56.500Z,3.95
2019-05-16T18:51:28.650Z,3.72
2019-05-16T18:54:00.992Z,3.17
2019-05-16T18:56:36.429Z,3.85
2019-05-16T18:59:07.865Z,3.87
2019-05-16T19:01:42.028Z,4.30
2019-05-16T19:04:14.312Z,4.10
2019-05-16T19:06:46.659Z,3.55
2019-05-16T19:09:20.057Z,3.67
2019-05-16T19:11:52.212Z,4.00
2019-05-16T19:14:27.160Z,4.08
2019-05-16T19:16:59.243Z,4.30
2019-05-16T19:19:31.391Z,3.80
2019-05-16T19:22:06.425Z,3.67
2019-05-16T19:24:38.462Z,3.95
2019-05-16T19:27:10.654Z,3.70
2019-05-16T19:29:42.867Z,4.22
2019-05-16T19:32:17.088Z,3.17
2019-05-16T19:34:49.194Z,4.30
2019-05-16T19:37:22.722Z,4.83
2019-05-16T19:39:56.869Z,3.47
2019-05-16T19:42:29.838Z,3.60
2019-05-16T19:45:02.101Z,4.33
2019-05-16T19:47:37.623Z,3.60
2019-05-16T19:50:11.654Z,4.55
2019-05-16T19:52:43.661Z,4.15
2019-05-16T19:55:15.758Z,4.57
2019-05-16T19:57:47.768Z,4.15
2019-05-16T20:00:20.955Z,5.15
2019-05-16T20:02:53.049Z,5.10
2019-05-16T20:05:26.725Z,4.10
2019-05-16T20:07:58.916Z,5.08
2019-05-16T20:10:31.111Z,5.08
2019-05-16T20:13:03.096Z,5.10
2019-05-16T20:15:36.561Z,6.70
2019-05-16T20:18:09.334Z,5.58
2019-05-16T20:20:41.392Z,5.55
2019-05-16T20:23:13.427Z,5.85
2019-05-16T20:25:47.042Z,4.97
2019-05-16T20:28:19.266Z,6.28
2019-05-16T20:30:51.229Z,6.10
2019-05-16T20:33:23.326Z,6.15
2019-05-16T20:35:57.406Z,5.87
2019-05-16T20:38:29.117Z,5.83
2019-05-16T20:41:01.398Z,5.75
2019-05-16T20:43:33.446Z,7.08
2019-05-16T20:46:07.364Z,5.80
2019-05-16T20:48:39.442Z,5.15
2019-05-16T20:51:12.595Z,6.67
2019-05-16T20:53:46.835Z,6.30
2019-05-16T20:56:18.798Z,6.90
2019-05-16T20:58:51.033Z,6.95
2019-05-16T21:01:23.072Z,6.50
2019-05-16T21:03:57.184Z,6.17
2019-05-16T21:06:29.107Z,7.20
2019-05-16T21:09:01.331Z,7.00
2019-05-16T21:11:37.126Z,6.97
2019-05-16T21:14:09.795Z,6.65
2019-05-16T21:16:41.911Z,6.78
2019-05-16T21:19:16.229Z,7.65
2019-05-16T21:21:47.893Z,6.92
2019-05-16T21:24:22.168Z,8.10
2019-05-16T21:26:53.760Z,7.20
2019-05-16T21:29:27.658Z,7.45
2019-05-16T21:31:59.760Z,6.92
2019-05-16T21:34:31.889Z,7.53
2019-05-16T21:37:13.794Z,8.30
2019-05-16T21:39:37.855Z,8.73
2019-05-16T21:42:09.945Z,9.20
2019-05-16T21:44:41.912Z,8.05
2019-05-16T21:47:16.815Z,7.97
2019-05-16T21:49:48.473Z,7.65
2019-05-16T21:52:20.645Z,7.22
2019-05-16T21:54:52.676Z,7.62
2019-05-16T21:57:26.821Z,7.83
2019-05-16T21:59:58.692Z,7.28
2019-05-16T22:02:30.859Z,8.63
2019-05-16T22:05:02.865Z,7.35
2019-05-16T22:07:37.210Z,7.60
2019-05-16T22:10:09.437Z,7.87
2019-05-16T22:12:43.101Z,7.87
2019-05-16T22:15:17.076Z,8.10
2019-05-16T22:17:50.944Z,9.13
2019-05-16T22:20:22.981Z,8.38
2019-05-16T22:22:57.440Z,8.33
2019-05-16T22:25:29.144Z,8.58
2019-05-16T22:28:01.253Z,9.00
2019-05-16T22:30:33.410Z,8.98
2019-05-16T22:33:08.969Z,8.70
2019-05-16T22:35:39.253Z,9.70
2019-05-16T22:38:11.362Z,8.73
2019-05-16T22:40:43.439Z,9.55
2019-05-16T22:43:17.417Z,9.30
2019-05-16T22:45:49.323Z,9.23
2019-05-16T22:48:21.247Z,9.80
2019-05-16T22:50:53.319Z,9.25
2019-05-16T22:53:27.217Z,9.63
2019-05-16T22:55:59.130Z,9.30
2019-05-16T22:58:32.179Z,9.95
2019-05-16T23:01:06.952Z,10.20
2019-05-16T23:03:38.205Z,10.20
2019-05-16T23:06:10.727Z,8.75
2019-05-16T23:08:42.719Z,9.80
2019-05-16T23:11:16.365Z,9.78
2019-05-16T23:13:48.533Z,9.88
2019-05-16T23:16:20.730Z,10.23
2019-05-16T23:18:52.695Z,10.75
2019-05-16T23:21:24.703Z,10.32
2019-05-16T23:23:57.163Z,10.30
2019-05-16T23:26:29.646Z,11.85
2019-05-16T23:29:01.613Z,10.65
2019-05-16T23:31:33.732Z,10.20
2019-05-16T23:34:07.179Z,10.95
2019-05-16T23:36:39.236Z,11.55
2019-05-16T23:39:11.454Z,10.98
2019-05-16T23:41:43.464Z,10.23
2019-05-16T23:44:16.653Z,11.40
2019-05-16T23:46:48.893Z,11.45
2019-05-16T23:49:22.116Z,10.43
2019-05-16T23:51:56.667Z,11.73
2019-05-16T23:54:27.939Z,11.50
2019-05-16T23:57:01.095Z,11.65
2019-05-16T23:59:33.055Z,11.75
